Time;durP1;ratioP1;P1;durP2;ratioP2;P2;SDS_P1;SDS_P2;PMS_P1;PMS_P2;Temp;Humidity;BMP_temperature;BMP_pressure;BME280_temperature;BME280_humidity;BME280_pressure;Samples;Min_cycle;Max_cycle;Signal;HPM_P1;HPM_P2
2022/02/01 00:01:21;;;;;;;21.03;13.33;;;;;;;1.69;93.73;100605.50;5073159;28;20299;-79
2022/02/01 00:03:50;;;;;;;17.17;13.90;;;;;;;1.70;93.70;100598.66;5074427;28;20204;-78
2022/02/01 00:06:23;;;;;;;20.30;13.67;;;;;;;1.63;94.38;100592.53;5073778;28;20221;-79
2022/02/01 00:08:59;;;;;;;15.40;13.43;;;;;;;1.63;94.09;100586.53;5072270;28;20228;-79
2022/02/01 00:11:35;;;;;;;20.80;12.33;;;;;;;1.61;94.01;100588.19;5072759;28;20266;-77
2022/02/01 00:14:11;;;;;;;22.10;12.90;;;;;;;1.65;94.51;100597.72;5072909;28;20204;-78
2022/02/01 00:19:44;;;;;;;19.43;14.13;;;;;;;1.56;95.45;100572.66;5071197;28;20227;-77
2022/02/01 00:33:41;;;;;;;25.40;16.30;;;;;;;1.58;96.76;100516.94;5072621;28;20315;-79
2022/02/01 00:36:11;;;;;;;23.30;15.23;;;;;;;1.67;97.24;100511.13;5071944;28;20713;-77
2022/02/01 00:38:48;;;;;;;26.43;17.03;;;;;;;1.65;97.00;100505.94;5072184;28;20718;-79
2022/02/01 00:41:14;;;;;;;25.63;16.83;;;;;;;1.62;97.00;100493.00;5072334;28;20242;-78
2022/02/01 00:43:41;;;;;;;21.30;17.20;;;;;;;1.66;97.86;100493.94;5071712;28;20675;-77
2022/02/01 00:46:07;;;;;;;23.53;17.87;;;;;;;1.64;97.90;100480.19;5072319;28;20192;-76
2022/02/01 00:48:34;;;;;;;35.07;18.87;;;;;;;1.60;98.63;100445.81;5072259;28;20233;-79
2022/02/01 00:51:02;;;;;;;31.70;19.43;;;;;;;1.59;98.90;100437.22;5071997;28;20205;-78
2022/02/01 00:53:30;;;;;;;31.03;20.07;;;;;;;1.62;99.47;100418.41;5072224;28;20208;-78
2022/02/01 00:55:58;;;;;;;34.60;19.10;;;;;;;1.63;99.88;100415.00;5073463;28;20228;-80
2022/02/01 00:58:25;;;;;;;34.77;18.43;;;;;;;1.62;100.00;100402.09;5073740;28;20235;-79
2022/02/01 01:00:52;;;;;;;38.10;19.70;;;;;;;1.62;100.00;100394.38;5074219;28;20205;-79
2022/02/01 01:03:19;;;;;;;33.50;18.90;;;;;;;1.68;100.00;100379.06;5074897;28;20220;-79
2022/02/01 01:05:45;;;;;;;26.87;17.77;;;;;;;1.51;100.00;100389.06;5074728;28;20208;-79
2022/02/01 01:08:11;;;;;;;29.57;17.93;;;;;;;1.45;100.00;100382.13;5073913;28;20200;-77
2022/02/01 01:10:39;;;;;;;27.83;16.27;;;;;;;1.43;100.00;100362.34;5073509;28;20254;-80
2022/02/01 01:13:19;;;;;;;26.60;16.50;;;;;;;1.40;100.00;100355.44;5074056;28;20234;-79
2022/02/01 01:15:53;;;;;;;24.63;16.43;;;;;;;1.50;100.00;100343.59;5068676;28;20209;-79
2022/02/01 01:45:57;;;;;;;26.70;16.70;;;;;;;1.52;100.00;100293.91;5059500;28;20204;-80
2022/02/01 01:53:51;;;;;;;22.50;13.67;;;;;;;1.72;100.00;100267.63;5074288;28;20208;-78
2022/02/01 01:56:18;;;;;;;23.97;14.23;;;;;;;1.78;100.00;100273.72;5074223;28;20669;-79
2022/02/01 01:58:45;;;;;;;26.67;12.30;;;;;;;1.82;100.00;100268.63;5074105;28;20213;-79
2022/02/01 02:01:14;;;;;;;23.03;12.23;;;;;;;1.90;100.00;100277.28;5073682;28;20666;-80
2022/02/01 02:03:42;;;;;;;15.27;10.57;;;;;;;1.92;100.00;100281.66;5073874;28;20566;-79
2022/02/01 02:06:08;;;;;;;19.60;11.87;;;;;;;1.97;100.00;100272.25;5074608;28;20205;-80
2022/02/01 02:08:36;;;;;;;16.83;9.80;;;;;;;1.98;100.00;100284.31;5074824;28;20221;-79
2022/02/01 02:11:05;;;;;;;20.43;10.30;;;;;;;2.07;100.00;100298.13;5074308;28;20202;-80
2022/02/01 02:16:20;;;;;;;11.60;7.27;;;;;;;2.05;100.00;100326.41;5072815;28;20231;-79
2022/02/01 02:18:47;;;;;;;15.43;6.67;;;;;;;2.12;100.00;100337.66;5072838;28;20255;-79
2022/02/01 02:21:17;;;;;;;14.20;6.40;;;;;;;2.06;100.00;100360.75;5072678;28;20201;-80
2022/02/01 02:23:43;;;;;;;10.37;5.60;;;;;;;2.08;100.00;100371.94;5072450;28;20578;-79
2022/02/01 02:26:13;;;;;;;12.13;6.13;;;;;;;2.13;100.00;100388.31;5073388;28;20679;-79
2022/02/01 02:28:41;;;;;;;15.00;6.47;;;;;;;2.09;100.00;100386.56;5076569;28;20227;-78
2022/02/01 02:31:08;;;;;;;11.07;7.07;;;;;;;2.13;100.00;100381.47;5075708;28;20255;-79
2022/02/01 02:33:35;;;;;;;15.60;7.33;;;;;;;2.04;100.00;100357.28;5077425;28;20439;-79
2022/02/01 02:36:06;;;;;;;10.10;6.60;;;;;;;2.08;100.00;100348.75;5087545;28;20231;-78
2022/02/01 02:38:40;;;;;;;10.77;6.27;;;;;;;2.03;100.00;100342.69;5084222;28;20232;-78
2022/02/01 02:46:38;;;;;;;10.77;3.53;;;;;;;1.93;100.00;100339.13;5071564;28;20204;-77
2022/02/01 02:49:05;;;;;;;14.70;3.97;;;;;;;1.83;100.00;100360.44;5074888;28;20229;-78
2022/02/01 02:51:32;;;;;;;11.70;3.60;;;;;;;1.80;100.00;100356.06;5075082;28;20283;-81
2022/02/01 02:54:03;;;;;;;18.87;3.57;;;;;;;1.88;100.00;100358.78;5076265;28;20247;-78
2022/02/01 02:56:29;;;;;;;12.93;3.50;;;;;;;1.78;100.00;100358.66;5076955;28;20277;-78
2022/02/01 02:58:56;;;;;;;7.60;2.40;;;;;;;1.75;100.00;100368.03;5076579;28;20290;-78
2022/02/01 03:01:22;;;;;;;13.57;2.90;;;;;;;1.70;100.00;100372.22;5075886;28;20227;-79
2022/02/01 03:03:49;;;;;;;10.13;2.43;;;;;;;1.74;100.00;100368.84;5075728;28;20205;-80
2022/02/01 03:06:15;;;;;;;10.87;2.60;;;;;;;1.72;100.00;100370.53;5076788;28;20258;-79
2022/02/01 03:08:41;;;;;;;10.80;2.87;;;;;;;1.72;100.00;100373.97;5075385;28;20718;-79
2022/02/01 03:11:12;;;;;;;14.90;3.47;;;;;;;1.74;100.00;100374.00;5076046;28;20193;-78
2022/02/01 03:13:42;;;;;;;14.00;3.03;;;;;;;1.67;100.00;100387.63;5076530;28;20815;-78
2022/02/01 03:16:14;;;;;;;9.03;2.07;;;;;;;1.65;100.00;100403.03;5075836;28;20216;-78
2022/02/01 03:21:24;;;;;;;14.67;2.63;;;;;;;1.65;100.00;100425.31;5075832;28;20187;-79
2022/02/01 03:23:51;;;;;;;18.03;3.07;;;;;;;1.67;99.86;100428.78;5076196;28;20209;-79
2022/02/01 03:26:19;;;;;;;12.57;2.70;;;;;;;1.71;98.77;100456.31;5076256;28;20208;-79
2022/02/01 03:28:45;;;;;;;13.33;2.27;;;;;;;1.72;98.43;100476.03;5074043;28;20233;-78
2022/02/01 03:31:11;;;;;;;12.40;2.40;;;;;;;1.82;97.07;100515.66;5073282;28;20205;-77
2022/02/01 03:33:38;;;;;;;9.83;3.07;;;;;;;1.88;96.88;100542.38;5073853;28;20710;-79
2022/02/01 03:36:05;;;;;;;20.00;2.87;;;;;;;1.88;95.22;100578.41;5074069;28;20226;-77
2022/02/01 03:38:31;;;;;;;7.17;2.10;;;;;;;1.87;94.93;100597.28;5073255;28;20254;-77
2022/02/01 03:40:57;;;;;;;12.50;2.60;;;;;;;1.96;93.41;100618.06;5073889;28;20189;-78
2022/02/01 03:43:25;;;;;;;11.77;2.50;;;;;;;1.97;92.85;100642.94;5074142;28;20258;-77
2022/02/01 03:45:52;;;;;;;10.27;3.10;;;;;;;1.89;92.61;100661.66;5073338;28;20246;-80
2022/02/01 03:48:18;;;;;;;8.37;2.07;;;;;;;1.87;92.49;100665.91;5073456;28;20248;-78
2022/02/01 03:50:45;;;;;;;10.90;2.10;;;;;;;1.87;91.87;100679.63;5073631;28;20213;-78
2022/02/01 03:53:12;;;;;;;15.20;2.93;;;;;;;1.85;92.15;100681.31;5073800;28;20200;-78
2022/02/01 03:55:39;;;;;;;11.77;2.50;;;;;;;1.84;92.71;100673.56;5073384;28;20228;-78
2022/02/01 03:58:06;;;;;;;16.23;2.70;;;;;;;1.81;92.65;100671.78;5073793;28;20216;-78
2022/02/01 04:00:34;;;;;;;12.40;2.30;;;;;;;1.84;93.35;100669.25;5072571;28;20224;-78
2022/02/01 04:03:03;;;;;;;10.87;2.30;;;;;;;1.86;92.28;100695.91;5073060;28;20204;-79
2022/02/01 04:05:30;;;;;;;9.47;1.87;;;;;;;1.88;92.20;100704.53;5073349;28;20562;-78
2022/02/01 04:07:56;;;;;;;9.17;2.57;;;;;;;1.85;93.34;100695.91;5073391;28;20208;-78
2022/02/01 04:10:23;;;;;;;15.47;2.77;;;;;;;1.75;93.74;100667.38;5072141;28;20237;-77
2022/02/01 04:12:50;;;;;;;14.27;2.33;;;;;;;1.78;94.53;100634.00;5073044;28;20211;-77
2022/02/01 04:15:19;;;;;;;7.97;2.67;;;;;;;1.85;95.20;100621.25;5072162;28;20710;-78
2022/02/01 04:17:47;;;;;;;5.67;2.27;;;;;;;1.79;95.25;100622.00;5073527;28;20209;-77
2022/02/01 04:20:14;;;;;;;12.00;2.43;;;;;;;1.81;94.54;100622.91;5072651;28;20229;-77
2022/02/01 04:22:40;;;;;;;14.43;3.53;;;;;;;1.77;95.05;100610.81;5072833;28;20250;-79
2022/02/01 04:25:08;;;;;;;11.30;2.60;;;;;;;1.76;95.26;100584.22;5072981;28;20247;-78
2022/02/01 04:27:34;;;;;;;12.50;2.77;;;;;;;1.73;95.14;100565.28;5072829;28;20610;-78
2022/02/01 04:30:07;;;;;;;8.47;2.13;;;;;;;1.81;95.21;100558.56;5072059;28;20228;-78
2022/02/01 04:32:35;;;;;;;13.47;2.97;;;;;;;1.77;95.41;100554.19;5072495;28;20225;-78
2022/02/01 04:35:03;;;;;;;10.97;2.60;;;;;;;1.76;95.39;100537.91;5072563;28;20204;-78
2022/02/01 04:37:31;;;;;;;14.93;2.63;;;;;;;1.85;95.54;100533.75;5072306;28;20691;-79
2022/02/01 04:39:58;;;;;;;11.53;3.13;;;;;;;1.75;94.94;100538.72;5071934;28;20655;-79
2022/02/01 04:42:26;;;;;;;12.73;2.33;;;;;;;1.77;94.54;100555.06;5072620;28;20213;-78
2022/02/01 04:44:53;;;;;;;14.17;3.27;;;;;;;1.81;93.82;100575.72;5071660;28;20204;-78
2022/02/01 04:47:19;;;;;;;11.63;2.30;;;;;;;1.75;93.44;100587.59;5072528;28;20205;-78
2022/02/01 04:49:46;;;;;;;11.27;2.97;;;;;;;1.75;92.69;100613.34;5070888;28;20704;-78
2022/02/01 04:52:14;;;;;;;20.80;3.90;;;;;;;1.70;92.79;100629.53;5072305;28;20401;-78
2022/02/01 04:54:42;;;;;;;13.20;3.27;;;;;;;1.73;91.81;100660.47;5072701;28;20205;-78
2022/02/01 04:57:08;;;;;;;18.50;3.60;;;;;;;1.67;91.61;100675.78;5071932;28;20715;-78
2022/02/01 04:59:35;;;;;;;13.43;3.03;;;;;;;1.67;91.30;100689.53;5071427;28;20294;-78
2022/02/01 05:02:01;;;;;;;16.03;2.73;;;;;;;1.70;90.89;100691.28;5072955;28;20266;-79
2022/02/01 05:04:27;;;;;;;17.47;2.87;;;;;;;1.66;91.41;100694.63;5073855;28;20213;-79
2022/02/01 05:06:54;;;;;;;12.53;2.20;;;;;;;1.60;91.54;100682.50;5074392;28;20760;-79
2022/02/01 05:09:23;;;;;;;11.63;2.40;;;;;;;1.59;91.48;100675.63;5073896;28;20231;-76
2022/02/01 05:11:52;;;;;;;14.10;2.87;;;;;;;1.58;91.95;100673.88;5074834;28;20294;-79
2022/02/01 05:14:21;;;;;;;12.10;2.80;;;;;;;1.65;91.33;100682.63;5073345;28;20267;-78
2022/02/01 05:16:58;;;;;;;15.33;2.70;;;;;;;1.63;91.57;100674.84;5072792;28;20307;-79
2022/02/01 05:19:43;;;;;;;10.20;2.23;;;;;;;1.72;91.69;100690.47;5072587;28;20262;-78
2022/02/01 05:22:14;;;;;;;10.33;2.70;;;;;;;1.75;91.73;100695.69;5073541;28;20200;-78
2022/02/01 05:24:42;;;;;;;9.30;2.20;;;;;;;1.67;91.23;100680.94;5073150;28;20193;-78
2022/02/01 05:27:12;;;;;;;10.97;2.23;;;;;;;1.74;91.85;100672.50;5072795;28;20205;-78
2022/02/01 05:29:40;;;;;;;9.70;2.50;;;;;;;1.71;91.55;100686.16;5072645;28;20256;-78
2022/02/01 05:32:21;;;;;;;15.43;2.37;;;;;;;1.62;92.00;100682.53;5072765;28;20220;-78
2022/02/01 05:34:48;;;;;;;12.23;2.33;;;;;;;1.63;91.94;100674.84;5073202;28;20814;-79
2022/02/01 05:37:14;;;;;;;11.63;2.00;;;;;;;1.59;91.79;100678.19;5072897;28;20278;-78
2022/02/01 05:39:42;;;;;;;13.40;2.93;;;;;;;1.56;92.32;100678.97;5089372;22;20225;-77
2022/02/01 05:42:09;;;;;;;10.80;2.63;;;;;;;1.51;92.01;100672.03;5050388;28;20220;-79
2022/02/01 05:44:35;;;;;;;7.90;1.80;;;;;;;1.50;92.18;100668.56;5034340;28;20212;-80
2022/02/01 05:47:02;;;;;;;12.07;2.03;;;;;;;1.52;92.09;100663.47;5033344;28;20213;-78
2022/02/01 05:49:29;;;;;;;10.73;2.23;;;;;;;1.54;92.34;100657.50;5031140;28;20268;-79
2022/02/01 05:51:55;;;;;;;11.73;2.10;;;;;;;1.54;92.65;100667.78;5013684;28;20207;-79
2022/02/01 05:54:25;;;;;;;18.63;2.87;;;;;;;1.51;93.30;100669.47;5013836;28;20666;-79
2022/02/01 05:56:53;;;;;;;14.43;2.70;;;;;;;1.45;93.21;100666.72;5013962;28;20230;-78
2022/02/01 05:59:19;;;;;;;9.30;2.87;;;;;;;1.44;93.49;100657.28;5013281;28;20229;-77
2022/02/01 06:01:45;;;;;;;11.17;2.97;;;;;;;1.44;94.13;100645.28;5017061;28;20206;-78
2022/02/01 06:04:12;;;;;;;9.97;2.33;;;;;;;1.41;94.25;100636.63;5030089;28;20210;-78
2022/02/01 06:06:38;;;;;;;7.43;2.03;;;;;;;1.41;94.47;100616.06;5037233;28;20680;-79
2022/02/01 06:09:05;;;;;;;11.33;2.23;;;;;;;1.45;94.62;100585.31;5037203;28;20217;-78
2022/02/01 06:11:32;;;;;;;6.63;2.27;;;;;;;1.47;94.33;100593.06;5036192;28;20248;-79
2022/02/01 06:13:59;;;;;;;11.77;2.50;;;;;;;1.46;93.81;100605.03;5037235;28;20209;-78
2022/02/01 06:16:26;;;;;;;11.50;2.40;;;;;;;1.52;94.64;100599.16;5037620;28;20692;-78
2022/02/01 06:18:52;;;;;;;8.40;2.70;;;;;;;1.49;93.93;100583.66;5037630;28;20264;-79
2022/02/01 06:21:18;;;;;;;12.23;2.50;;;;;;;1.57;93.98;100589.84;5036956;28;20597;-79
2022/02/01 06:23:45;;;;;;;9.47;2.70;;;;;;;1.53;94.91;100588.91;5036580;28;20202;-79
2022/02/01 06:26:12;;;;;;;16.03;3.90;;;;;;;1.61;95.13;100593.34;5036714;28;20264;-79
2022/02/01 06:28:39;;;;;;;11.80;2.67;;;;;;;1.58;94.80;100574.41;5036790;28;20678;-79
2022/02/01 06:31:06;;;;;;;15.97;2.50;;;;;;;1.68;94.63;100562.59;5036581;28;20234;-79
2022/02/01 06:33:33;;;;;;;9.67;2.43;;;;;;;1.61;94.77;100562.47;5037460;28;20206;-79
2022/02/01 06:35:59;;;;;;;9.00;2.77;;;;;;;1.68;94.05;100554.88;5039723;28;20260;-79
2022/02/01 06:38:25;;;;;;;8.03;2.30;;;;;;;1.70;94.43;100549.75;5036628;28;20692;-78
2022/02/01 06:40:52;;;;;;;14.10;2.37;;;;;;;1.66;94.58;100558.25;5034288;28;20238;-77
2022/02/01 06:43:18;;;;;;;8.77;3.33;;;;;;;1.65;95.14;100565.13;5029476;28;20293;-79
2022/02/01 06:45:45;;;;;;;12.37;3.70;;;;;;;1.69;94.52;100566.06;5024934;28;20198;-78
2022/02/01 06:48:13;;;;;;;12.13;1.97;;;;;;;1.70;95.23;100568.63;5032384;28;20560;-78
2022/02/01 06:50:39;;;;;;;7.17;2.10;;;;;;;1.76;94.92;100573.91;5036133;28;20217;-78
2022/02/01 06:53:06;;;;;;;13.70;3.60;;;;;;;1.77;94.17;100579.94;5039094;28;20627;-79
2022/02/01 06:55:36;;;;;;;9.07;2.13;;;;;;;1.84;94.36;100593.78;5036241;28;20229;-78
2022/02/01 06:58:04;;;;;;;8.67;2.10;;;;;;;1.88;94.59;100588.69;5036594;28;20226;-78
2022/02/01 07:00:31;;;;;;;12.87;2.40;;;;;;;1.88;94.75;100574.97;5036285;28;20230;-78
2022/02/01 07:02:58;;;;;;;8.50;2.83;;;;;;;1.88;94.77;100582.69;5036826;28;20214;-78
2022/02/01 07:05:26;;;;;;;11.27;2.97;;;;;;;1.88;94.67;100574.97;5036888;28;20211;-79
2022/02/01 07:07:52;;;;;;;9.57;2.13;;;;;;;1.95;95.17;100567.38;5036871;28;20681;-79
2022/02/01 07:10:19;;;;;;;6.47;2.13;;;;;;;1.97;94.55;100570.00;5036267;28;20226;-79
2022/02/01 07:12:45;;;;;;;8.60;2.70;;;;;;;1.98;94.64;100574.28;5035742;28;20244;-79
2022/02/01 07:15:12;;;;;;;9.20;2.70;;;;;;;1.99;95.04;100571.75;5037248;28;20206;-77
2022/02/01 07:17:46;;;;;;;10.77;2.23;;;;;;;1.99;94.80;100569.19;5035778;28;20238;-78
2022/02/01 07:20:12;;;;;;;18.33;3.00;;;;;;;2.08;94.96;100563.34;5036137;28;20276;-79
2022/02/01 07:22:41;;;;;;;9.17;3.07;;;;;;;2.03;94.52;100549.50;5036922;28;20256;-78
2022/02/01 07:25:14;;;;;;;7.03;1.70;;;;;;;2.04;95.12;100532.34;5036318;28;20217;-78
2022/02/01 07:27:42;;;;;;;7.57;2.30;;;;;;;2.08;94.67;100536.72;5037011;28;20186;-77
2022/02/01 07:30:12;;;;;;;8.57;3.00;;;;;;;2.12;94.72;100531.66;5035369;28;20860;-78
2022/02/01 07:32:38;;;;;;;7.43;2.53;;;;;;;2.16;95.13;100538.59;5036011;28;20656;-78
2022/02/01 07:35:07;;;;;;;10.47;3.20;;;;;;;2.18;94.46;100544.63;5035373;28;20206;-78
2022/02/01 07:37:33;;;;;;;12.87;3.00;;;;;;;2.18;94.77;100538.59;5036473;28;20287;-77
2022/02/01 07:40:02;;;;;;;10.00;3.67;;;;;;;2.23;94.24;100549.00;5035587;28;20238;-79
2022/02/01 07:42:28;;;;;;;11.27;2.27;;;;;;;2.17;95.29;100547.16;5036136;28;20206;-79
2022/02/01 07:44:58;;;;;;;8.83;2.70;;;;;;;2.25;94.95;100562.75;5036092;28;20210;-78
2022/02/01 07:47:25;;;;;;;7.30;2.13;;;;;;;2.19;94.59;100548.91;5034850;28;20201;-78
2022/02/01 07:49:51;;;;;;;7.60;2.70;;;;;;;2.27;94.40;100530.16;5035204;28;20226;-77
2022/02/01 07:52:18;;;;;;;7.07;2.37;;;;;;;2.22;93.99;100519.81;5035199;28;20256;-78
2022/02/01 07:54:45;;;;;;;14.07;2.60;;;;;;;2.27;94.24;100510.44;5034342;28;20256;-78
2022/02/01 07:57:13;;;;;;;12.07;3.13;;;;;;;2.26;94.41;100510.41;5034243;28;20708;-77
2022/02/01 07:59:40;;;;;;;8.23;2.27;;;;;;;2.34;93.84;100522.56;5029480;28;20358;-78
2022/02/01 08:02:17;;;;;;;4.47;1.87;;;;;;;2.36;93.71;100517.44;5014406;28;20237;-77
2022/02/01 08:04:43;;;;;;;7.53;2.10;;;;;;;2.45;93.28;100540.75;5014697;28;20260;-78
2022/02/01 08:07:10;;;;;;;9.17;2.23;;;;;;;2.47;93.52;100551.09;5014402;28;20253;-77
2022/02/01 08:09:39;;;;;;;6.93;2.27;;;;;;;2.53;93.69;100551.19;5015783;28;20218;-78
2022/02/01 08:12:15;;;;;;;5.87;2.40;;;;;;;2.52;93.13;100532.28;5033283;28;20439;-78
2022/02/01 08:15:42;;;;;;;8.00;2.00;;;;;;;2.62;93.29;100517.84;5033082;28;20719;-77
2022/02/01 08:17:48;;;;;;;6.67;1.90;;;;;;;2.60;93.39;100519.53;5032999;28;20311;-77
2022/02/01 08:20:19;;;;;;;13.07;2.80;;;;;;;2.62;92.97;100499.81;5034402;28;20234;-79
2022/02/01 08:23:02;;;;;;;15.10;2.10;;;;;;;2.75;93.24;100486.22;5035429;28;20552;-76
2022/02/01 08:25:29;;;;;;;8.43;2.87;;;;;;;2.76;93.04;100494.84;5034896;28;20210;-79
2022/02/01 08:27:57;;;;;;;11.87;6.13;;;;;;;2.78;92.46;100506.91;5034772;28;20198;-79
2022/02/01 08:30:25;;;;;;;11.93;5.47;;;;;;;2.87;92.41;100511.28;5034264;28;20288;-78
2022/02/01 08:32:52;;;;;;;12.20;5.10;;;;;;;2.83;92.07;100519.84;5035238;28;20202;-78
2022/02/01 08:35:18;;;;;;;7.40;5.23;;;;;;;2.87;92.04;100519.03;5035878;28;20210;-78
2022/02/01 08:37:46;;;;;;;8.10;3.47;;;;;;;2.88;91.79;100519.91;5035273;28;20222;-79
2022/02/01 08:40:13;;;;;;;7.37;2.13;;;;;;;2.98;91.62;100503.72;5033918;28;20233;-78
2022/02/01 08:42:41;;;;;;;10.03;3.00;;;;;;;2.88;91.61;100512.19;5035136;28;20194;-79
2022/02/01 08:45:10;;;;;;;8.37;3.20;;;;;;;2.92;91.71;100511.38;5035683;28;20206;-78
2022/02/01 08:47:38;;;;;;;6.87;2.67;;;;;;;3.01;91.38;100496.00;5027586;28;20199;-77
2022/02/01 08:50:05;;;;;;;5.97;3.27;;;;;;;2.89;91.59;100493.28;5023968;28;20244;-78
2022/02/01 08:52:39;;;;;;;10.53;3.57;;;;;;;2.92;91.95;100473.56;5022354;28;20245;-79
2022/02/01 08:55:07;;;;;;;11.00;3.30;;;;;;;2.93;91.00;100474.41;5026371;28;20196;-79
2022/02/01 08:57:34;;;;;;;9.63;3.33;;;;;;;2.94;90.93;100476.16;5024337;28;20226;-79
2022/02/01 09:00:05;;;;;;;9.30;2.70;;;;;;;2.95;90.94;100483.03;5023884;28;20280;-78
2022/02/01 09:02:32;;;;;;;8.43;3.00;;;;;;;3.03;90.32;100486.56;5024196;28;20743;-79
2022/02/01 09:05:00;;;;;;;8.33;2.33;;;;;;;2.99;89.58;100492.53;5024297;28;20195;-79
2022/02/01 09:07:26;;;;;;;5.27;2.90;;;;;;;3.07;89.64;100497.81;5024126;28;20202;-78
2022/02/01 09:09:55;;;;;;;10.17;3.20;;;;;;;3.06;89.13;100502.09;5026098;28;20692;-79
2022/02/01 09:12:21;;;;;;;10.47;3.37;;;;;;;3.16;89.00;100491.03;5026662;28;20206;-78
2022/02/01 09:14:48;;;;;;;6.90;2.90;;;;;;;3.26;88.76;100481.72;5022885;28;20198;-78
2022/02/01 09:17:15;;;;;;;9.40;3.30;;;;;;;3.22;88.77;100494.56;5023758;28;20239;-78
2022/02/01 09:19:42;;;;;;;8.73;3.17;;;;;;;3.23;88.30;100494.59;5021509;28;20639;-78
2022/02/01 09:22:11;;;;;;;6.67;2.80;;;;;;;3.19;87.28;100518.59;5021764;28;20580;-77
2022/02/01 09:24:37;;;;;;;9.13;3.50;;;;;;;3.26;87.88;100498.91;5023897;28;20202;-78
2022/02/01 09:27:04;;;;;;;6.57;2.87;;;;;;;3.25;87.08;100513.53;5022816;28;20209;-78
2022/02/01 09:29:31;;;;;;;7.97;3.03;;;;;;;3.35;87.41;100504.16;5022509;28;20613;-78
2022/02/01 09:31:57;;;;;;;4.27;3.30;;;;;;;3.40;86.99;100512.81;5024689;28;20198;-78
2022/02/01 09:34:24;;;;;;;5.33;2.50;;;;;;;3.33;86.73;100522.22;5023917;28;20211;-79
2022/02/01 09:36:52;;;;;;;8.23;3.67;;;;;;;3.46;86.85;100527.50;5024270;28;20194;-79
2022/02/01 09:39:21;;;;;;;5.13;2.60;;;;;;;3.49;86.26;100518.09;5024527;28;20217;-76
2022/02/01 09:41:48;;;;;;;12.30;3.10;;;;;;;3.62;86.76;100506.19;5026755;28;20245;-78
2022/02/01 09:44:15;;;;;;;7.80;2.80;;;;;;;3.68;86.13;100507.97;5025837;28;20225;-80
2022/02/01 09:46:43;;;;;;;4.83;2.40;;;;;;;3.62;85.32;100529.41;5024468;28;20202;-79
2022/02/01 09:49:11;;;;;;;8.53;3.03;;;;;;;3.66;85.34;100525.16;5024549;28;20259;-79
2022/02/01 09:51:38;;;;;;;4.10;2.60;;;;;;;3.66;85.07;100517.41;5025645;28;20284;-79
2022/02/01 09:54:05;;;;;;;5.53;3.37;;;;;;;3.67;84.52;100525.16;5024604;28;20204;-79
2022/02/01 09:56:33;;;;;;;8.40;4.27;;;;;;;3.77;85.15;100493.44;5024251;28;20279;-79
2022/02/01 09:58:59;;;;;;;11.27;3.80;;;;;;;3.79;84.08;100508.94;5023266;28;20224;-78
2022/02/01 10:01:29;;;;;;;7.00;3.73;;;;;;;3.72;83.61;100525.22;5023869;28;20227;-80
2022/02/01 10:04:03;;;;;;;9.40;3.93;;;;;;;3.71;83.12;100516.59;5025067;28;20229;-79
2022/02/01 10:06:31;;;;;;;6.50;4.10;;;;;;;3.76;83.08;100507.19;5024692;28;20561;-78
2022/02/01 10:09:04;;;;;;;7.47;4.10;;;;;;;3.68;82.17;100539.78;5024284;28;20199;-78
2022/02/01 10:11:37;;;;;;;5.80;4.60;;;;;;;3.81;82.39;100522.72;5027964;28;20685;-78
2022/02/01 10:14:07;;;;;;;9.90;5.67;;;;;;;3.86;83.18;100517.59;5024754;28;20202;-79
2022/02/01 10:16:41;;;;;;;6.87;5.00;;;;;;;3.91;83.43;100497.88;5023723;28;20231;-79
2022/02/01 10:19:11;;;;;;;12.20;5.03;;;;;;;3.75;82.58;100502.03;5025619;28;20259;-80
2022/02/01 10:21:52;;;;;;;7.50;4.70;;;;;;;3.90;83.84;100483.22;5024065;28;20218;-78
2022/02/01 10:24:29;;;;;;;8.47;5.30;;;;;;;3.88;83.60;100469.41;5026006;28;20190;-79
2022/02/01 10:27:10;;;;;;;7.27;5.33;;;;;;;3.91;83.22;100464.31;5027534;28;20192;-83
2022/02/01 10:29:39;;;;;;;6.70;5.57;;;;;;;4.03;83.72;100454.06;5026463;28;20277;-81
2022/02/01 10:32:13;;;;;;;7.03;5.10;;;;;;;3.95;84.55;100417.84;5030420;28;20210;-80
2022/02/01 10:34:43;;;;;;;11.10;5.57;;;;;;;3.97;84.87;100400.63;5023314;28;20199;-79
2022/02/01 10:37:18;;;;;;;6.07;5.47;;;;;;;3.94;85.45;100394.59;5027074;28;20199;-80
2022/02/01 10:39:46;;;;;;;8.13;5.97;;;;;;;3.77;85.62;100363.50;5025814;28;20230;-79
2022/02/01 10:42:16;;;;;;;8.60;6.27;;;;;;;3.86;86.24;100340.31;5030982;28;20192;-79
2022/02/01 10:44:45;;;;;;;7.30;5.43;;;;;;;3.81;86.26;100312.75;5024354;28;20237;-78
2022/02/01 10:47:14;;;;;;;11.97;5.77;;;;;;;3.87;86.90;100298.16;5027557;28;20195;-80
2022/02/01 10:49:41;;;;;;;7.57;5.27;;;;;;;3.83;87.03;100275.75;5033711;28;20219;-79
2022/02/01 10:52:09;;;;;;;7.43;5.43;;;;;;;3.90;87.22;100258.56;5034338;28;20199;-80
2022/02/01 10:54:38;;;;;;;7.43;5.60;;;;;;;3.94;87.90;100229.31;5039648;28;20226;-79
2022/02/01 10:57:07;;;;;;;8.13;5.27;;;;;;;3.81;89.17;100201.75;5037855;28;20199;-78
2022/02/01 10:59:35;;;;;;;6.67;5.80;;;;;;;3.73;90.32;100158.66;5041578;28;20217;-78
2022/02/01 11:02:04;;;;;;;7.17;5.73;;;;;;;3.74;91.53;100131.13;5037837;28;20197;-78
2022/02/01 11:04:44;;;;;;;8.90;5.53;;;;;;;3.74;92.08;100100.16;5037949;28;20233;-79
2022/02/01 11:07:10;;;;;;;7.03;5.63;;;;;;;3.81;92.10;100099.31;5035259;28;20202;-78
2022/02/01 11:09:37;;;;;;;8.93;6.37;;;;;;;3.75;92.13;100086.41;5032448;28;20214;-80
2022/02/01 11:12:10;;;;;;;7.50;5.60;;;;;;;3.69;93.35;100053.69;5034815;28;20202;-80
2022/02/01 11:14:40;;;;;;;6.07;5.23;;;;;;;3.65;93.86;100025.25;5029594;28;20665;-79
2022/02/01 11:17:08;;;;;;;5.73;5.23;;;;;;;3.72;94.10;99996.03;5025371;28;20200;-78
2022/02/01 11:19:46;;;;;;;5.37;4.87;;;;;;;3.81;94.69;99971.97;5026843;28;20231;-78
2022/02/01 11:22:19;;;;;;;7.13;4.50;;;;;;;3.84;94.71;99947.00;5026594;28;20237;-79
2022/02/01 11:24:52;;;;;;;6.50;5.13;;;;;;;3.65;95.12;99934.94;5026832;28;20559;-78
2022/02/01 11:27:20;;;;;;;6.70;5.00;;;;;;;3.61;95.88;99909.97;5026482;28;20720;-78
2022/02/01 11:30:11;;;;;;;5.97;5.47;;;;;;;3.50;96.39;99882.47;5025522;28;20218;-79
2022/02/01 11:32:40;;;;;;;5.50;5.07;;;;;;;3.49;96.98;99849.78;5027740;28;20216;-78
2022/02/01 11:35:08;;;;;;;6.90;4.60;;;;;;;3.53;97.57;99824.84;5025187;28;20233;-78
2022/02/01 11:37:46;;;;;;;6.70;4.70;;;;;;;3.54;98.33;99811.94;5025220;28;20538;-79
2022/02/01 11:40:14;;;;;;;6.20;4.57;;;;;;;3.50;98.01;99787.00;5027570;28;20714;-78
2022/02/01 11:42:41;;;;;;;5.27;4.63;;;;;;;3.65;98.15;99774.94;5071949;22;20240;-78
2022/02/01 11:45:10;;;;;;;4.10;3.80;;;;;;;3.61;98.53;99762.88;5061446;28;20209;-78
2022/02/01 11:47:38;;;;;;;5.17;4.67;;;;;;;3.71;98.50;99760.31;5063574;28;20681;-77
2022/02/01 11:50:12;;;;;;;5.10;4.00;;;;;;;3.64;98.50;99747.41;5062479;28;20198;-78
2022/02/01 11:52:43;;;;;;;6.00;3.80;;;;;;;3.62;98.92;99739.66;5050204;28;20214;-78
2022/02/01 11:55:11;;;;;;;3.03;2.73;;;;;;;3.62;99.05;99729.34;5042028;28;20190;-79
2022/02/01 11:57:42;;;;;;;3.87;3.60;;;;;;;3.50;99.96;99699.28;5042382;28;20213;-78
2022/02/01 12:00:17;;;;;;;5.13;3.20;;;;;;;3.63;100.00;99670.84;5038725;28;20201;-80
2022/02/01 12:02:48;;;;;;;3.93;3.63;;;;;;;3.65;100.00;99661.38;5044331;28;20276;-80
2022/02/01 12:05:18;;;;;;;3.17;2.97;;;;;;;3.74;100.00;99656.19;5046482;28;20658;-78
2022/02/01 12:07:51;;;;;;;5.70;3.07;;;;;;;3.65;100.00;99628.72;5041171;28;20209;-79
2022/02/01 12:10:19;;;;;;;3.80;3.00;;;;;;;3.69;100.00;99596.88;5044372;28;20205;-78
2022/02/01 12:12:47;;;;;;;3.33;2.77;;;;;;;3.69;100.00;99575.38;5043698;28;20283;-78
2022/02/01 12:15:15;;;;;;;2.90;2.70;;;;;;;3.81;100.00;99564.13;5045237;28;20252;-77
2022/02/01 12:17:50;;;;;;;2.50;2.30;;;;;;;3.78;100.00;99555.50;5040255;28;20198;-79
2022/02/01 12:20:18;;;;;;;2.57;2.37;;;;;;;3.88;100.00;99565.78;5041618;28;20202;-78
2022/02/01 12:22:59;;;;;;;2.53;2.27;;;;;;;3.83;100.00;99563.25;5047346;28;20252;-77
2022/02/01 12:25:27;;;;;;;2.47;1.70;;;;;;;3.72;100.00;99554.69;5052671;28;20206;-77
2022/02/01 12:27:54;;;;;;;2.60;2.40;;;;;;;3.76;100.00;99530.56;5052572;28;20208;-79
2022/02/01 12:30:21;;;;;;;2.80;2.50;;;;;;;3.79;100.00;99522.81;5043357;28;20204;-77
2022/02/01 12:32:50;;;;;;;1.97;1.87;;;;;;;3.85;100.00;99488.38;5042657;28;20217;-78